Time;durP1;ratioP1;P1;durP2;ratioP2;P2;SDS_P1;SDS_P2;PMS_P1;PMS_P2;Temp;Humidity;BMP_temperature;BMP_pressure;BME280_temperature;BME280_humidity;BME280_pressure;Samples;Min_cycle;Max_cycle;Signal;HPM_P1;HPM_P2
2021/06/16 00:01:33;;;;;;;1.50;1.00;;;18.70;94.60;;;;;;5109628;28;20028;-78
2021/06/16 00:03:58;;;;;;;1.50;0.80;;;18.70;94.60;;;;;;5092577;28;20024;-79
2021/06/16 00:06:24;;;;;;;1.13;0.90;;;18.70;94.60;;;;;;5109468;28;20028;-79
2021/06/16 00:08:50;;;;;;;1.63;0.98;;;18.70;94.60;;;;;;5092406;28;20055;-80
2021/06/16 00:11:16;;;;;;;1.40;1.00;;;18.70;94.70;;;;;;5110569;28;20032;-80
2021/06/16 00:13:41;;;;;;;3.22;1.20;;;18.60;94.80;;;;;;5109308;28;20027;-80
2021/06/16 00:16:07;;;;;;;1.65;1.20;;;18.50;94.80;;;;;;5110530;28;20024;-80
2021/06/16 00:18:33;;;;;;;3.65;1.10;;;18.50;95.00;;;;;;5092439;28;20416;-78
2021/06/16 00:20:59;;;;;;;1.80;1.20;;;18.50;95.10;;;;;;5109084;28;20020;-78
2021/06/16 00:23:25;;;;;;;2.17;1.35;;;18.40;95.10;;;;;;5092473;28;20023;-79
2021/06/16 00:25:51;;;;;;;3.83;1.33;;;18.40;95.20;;;;;;5092197;28;20036;-80
2021/06/16 00:28:16;;;;;;;2.17;1.13;;;18.40;95.30;;;;;;5109122;28;20020;-78
2021/06/16 00:30:42;;;;;;;4.25;1.45;;;18.40;95.40;;;;;;5109142;28;20040;-80
2021/06/16 00:33:08;;;;;;;2.58;1.45;;;18.40;95.50;;;;;;5108309;28;20039;-79
2021/06/16 00:35:33;;;;;;;3.83;1.40;;;18.40;95.50;;;;;;5110202;28;20066;-80
2021/06/16 00:37:59;;;;;;;2.50;1.58;;;18.40;95.60;;;;;;5110167;28;20480;-79
2021/06/16 00:40:27;;;;;;;2.08;1.50;;;18.40;95.70;;;;;;5075280;28;20496;-79
2021/06/16 00:42:54;;;;;;;4.05;1.80;;;18.40;95.80;;;;;;5091984;28;20034;-79
2021/06/16 00:45:21;;;;;;;4.38;1.67;;;18.40;95.90;;;;;;5092111;28;20028;-79
2021/06/16 00:47:48;;;;;;;2.38;1.42;;;18.40;96.00;;;;;;5091640;28;20031;-79
2021/06/16 00:50:14;;;;;;;3.00;1.83;;;18.40;96.10;;;;;;5108574;28;20039;-79
2021/06/16 00:52:41;;;;;;;4.75;1.92;;;18.40;96.10;;;;;;5074750;28;20107;-79
2021/06/16 00:55:07;;;;;;;5.18;1.90;;;18.50;96.10;;;;;;5108403;28;20031;-77
2021/06/16 00:57:33;;;;;;;3.17;1.80;;;18.50;96.20;;;;;;5110307;28;20752;-79
2021/06/16 01:00:11;;;;;;;3.15;1.90;;;18.50;96.20;;;;;;5091580;28;20027;-78
2021/06/16 01:02:46;;;;;;;2.58;1.90;;;18.50;96.20;;;;;;5108193;28;20039;-79
2021/06/16 01:05:13;;;;;;;3.58;1.85;;;18.50;96.10;;;;;;5108467;28;20378;-78
2021/06/16 01:07:42;;;;;;;2.72;1.35;;;18.60;96.10;;;;;;5108437;28;20390;-78
2021/06/16 01:10:14;;;;;;;4.20;1.95;;;18.60;96.20;;;;;;5091356;28;20035;-79
2021/06/16 01:13:00;;;;;;;3.05;1.55;;;18.60;96.30;;;;;;5108284;28;20027;-79
2021/06/16 01:15:29;;;;;;;3.78;1.88;;;18.60;96.40;;;;;;5109443;28;20035;-79
2021/06/16 01:18:01;;;;;;;2.63;1.77;;;18.60;96.30;;;;;;5108532;28;20038;-78
2021/06/16 01:20:32;;;;;;;3.17;1.90;;;18.60;96.40;;;;;;5109746;27;20020;-79
2021/06/16 01:22:58;;;;;;;5.05;1.70;;;18.50;96.40;;;;;;5108197;28;20432;-78
2021/06/16 01:25:29;;;;;;;4.25;1.90;;;18.60;96.50;;;;;;5107863;28;20088;-79
2021/06/16 01:27:56;;;;;;;4.00;1.88;;;18.60;96.60;;;;;;5108015;28;20054;-78
2021/06/16 01:30:24;;;;;;;5.68;2.70;;;18.60;96.60;;;;;;5091209;28;20028;-80
2021/06/16 01:32:51;;;;;;;4.35;2.05;;;18.60;96.60;;;;;;5107970;28;20041;-77
2021/06/16 01:35:17;;;;;;;6.93;2.55;;;18.60;96.80;;;;;;5107753;28;20034;-78
2021/06/16 01:37:43;;;;;;;4.53;1.92;;;18.50;96.80;;;;;;5107770;28;20031;-79
2021/06/16 01:40:12;;;;;;;3.50;1.83;;;18.50;96.90;;;;;;5107818;28;20035;-78
2021/06/16 01:42:39;;;;;;;3.22;1.70;;;18.50;97.00;;;;;;5109196;28;20032;-78
2021/06/16 01:45:06;;;;;;;3.40;1.90;;;18.50;97.00;;;;;;5108893;28;20084;-78
2021/06/16 01:47:33;;;;;;;3.55;1.88;;;18.50;97.10;;;;;;5108933;28;20530;-77
2021/06/16 01:50:01;;;;;;;3.65;2.05;;;18.40;97.20;;;;;;5107717;28;20043;-78
2021/06/16 01:52:30;;;;;;;3.30;1.90;;;18.40;97.30;;;;;;5107703;28;20034;-78
2021/06/16 01:54:57;;;;;;;4.78;2.58;;;18.50;97.40;;;;;;5107332;28;20481;-79
2021/06/16 01:57:24;;;;;;;4.00;2.78;;;18.40;97.50;;;;;;5107388;28;20036;-79
2021/06/16 01:59:55;;;;;;;4.28;2.33;;;18.40;97.60;;;;;;5090215;28;20028;-79
2021/06/16 02:02:21;;;;;;;3.67;2.60;;;18.40;97.80;;;;;;5107362;28;20099;-78
2021/06/16 02:04:47;;;;;;;5.20;2.83;;;18.30;97.90;;;;;;5108572;28;20400;-79
2021/06/16 02:07:17;;;;;;;4.28;2.15;;;18.30;98.10;;;;;;5108753;28;20020;-78
2021/06/16 02:09:45;;;;;;;1.38;0.80;;;18.30;98.20;;;;;;5108579;28;20023;-79
2021/06/16 02:12:13;;;;;;;1.48;0.80;;;18.30;97.80;;;;;;5090313;28;20042;-78
2021/06/16 02:14:48;;;;;;;0.43;0.43;;;18.20;97.60;;;;;;5108339;28;20053;-79
2021/06/16 02:17:17;;;;;;;1.00;0.70;;;18.00;97.40;;;;;;5107222;28;20015;-78
2021/06/16 02:19:45;;;;;;;0.90;0.60;;;17.90;97.10;;;;;;5108749;28;20023;-79
2021/06/16 02:22:11;;;;;;;1.52;0.98;;;17.70;96.80;;;;;;5107136;28;20549;-80
2021/06/16 02:24:38;;;;;;;1.20;1.00;;;17.40;96.80;;;;;;5073608;28;20126;-79
2021/06/16 02:27:04;;;;;;;1.63;1.08;;;17.30;96.90;;;;;;5107066;28;20103;-80
2021/06/16 02:29:30;;;;;;;1.02;0.93;;;17.10;96.90;;;;;;5107096;28;20024;-79
2021/06/16 02:31:57;;;;;;;2.00;0.90;;;16.90;97.00;;;;;;5106985;28;20056;-79
2021/06/16 02:34:25;;;;;;;1.13;0.70;;;16.80;97.10;;;;;;5089711;28;20081;-79
2021/06/16 02:36:54;;;;;;;1.95;0.65;;;16.70;97.20;;;;;;5089723;28;20035;-80
2021/06/16 02:39:28;;;;;;;0.55;0.45;;;16.60;97.30;;;;;;5106884;28;20027;-79
2021/06/16 02:41:55;;;;;;;1.08;0.43;;;16.50;97.40;;;;;;5108178;28;20024;-80
2021/06/16 02:44:23;;;;;;;0.75;0.40;;;16.50;97.40;;;;;;5089681;28;20024;-80
2021/06/16 02:46:52;;;;;;;1.05;0.45;;;16.40;97.40;;;;;;5106743;28;20024;-80
2021/06/16 02:49:22;;;;;;;0.20;0.15;;;16.40;97.50;;;;;;5106746;28;20054;-79
2021/06/16 02:51:48;;;;;;;1.25;0.40;;;16.40;97.50;;;;;;5090316;28;20027;-81
2021/06/16 02:54:17;;;;;;;2.13;0.68;;;16.40;97.50;;;;;;5106594;28;20424;-79
2021/06/16 02:56:45;;;;;;;0.37;0.37;;;16.30;97.50;;;;;;5093066;28;20030;-79
2021/06/16 02:59:12;;;;;;;0.68;0.32;;;16.30;97.50;;;;;;5093921;28;20774;-79
2021/06/16 03:01:39;;;;;;;0.43;0.20;;;16.20;97.50;;;;;;5110716;28;20027;-79
2021/06/16 03:04:05;;;;;;;2.55;0.50;;;16.20;97.60;;;;;;5110245;28;20108;-78
2021/06/16 03:06:32;;;;;;;0.50;0.30;;;16.20;97.80;;;;;;5111776;28;20077;-80
2021/06/16 03:08:59;;;;;;;0.20;0.10;;;16.20;97.60;;;;;;5076870;28;20055;-79
2021/06/16 03:11:28;;;;;;;0.75;0.30;;;16.20;97.50;;;;;;5093742;28;20032;-80
2021/06/16 03:13:54;;;;;;;;;;;16.20;97.60;;;;;;5112274;28;20115;-79
2021/06/16 03:16:20;;;;;;;2.17;0.40;;;16.20;97.50;;;;;;5093406;28;20015;-78
2021/06/16 03:18:47;;;;;;;0.52;0.20;;;16.20;97.30;;;;;;5110380;28;20359;-78
2021/06/16 03:21:15;;;;;;;0.30;0.22;;;16.20;97.50;;;;;;5076665;28;20035;-79
2021/06/16 03:23:42;;;;;;;0.35;0.28;;;16.20;97.50;;;;;;5110253;28;20023;-78
2021/06/16 03:26:09;;;;;;;0.70;0.40;;;16.20;97.50;;;;;;5111583;28;20023;-79
2021/06/16 03:28:35;;;;;;;0.95;0.40;;;16.20;97.50;;;;;;5110090;28;20080;-79
2021/06/16 03:31:02;;;;;;;0.95;0.40;;;16.20;97.50;;;;;;5076471;28;20119;-79
2021/06/16 03:33:28;;;;;;;0.68;0.30;;;16.20;97.50;;;;;;5092955;28;20030;-80
2021/06/16 03:35:56;;;;;;;0.65;0.30;;;16.20;97.60;;;;;;5092875;28;20035;-80
2021/06/16 03:38:23;;;;;;;0.40;0.40;;;16.20;97.70;;;;;;5111364;28;20019;-80
2021/06/16 03:40:50;;;;;;;0.43;0.20;;;16.20;97.60;;;;;;5109841;28;20493;-80
2021/06/16 03:43:18;;;;;;;0.15;0.15;;;16.30;97.70;;;;;;5109842;28;20508;-80
2021/06/16 03:45:44;;;;;;;0.20;0.10;;;16.30;97.60;;;;;;5109656;28;20027;-80
2021/06/16 03:48:14;;;;;;;2.67;0.38;;;16.20;97.40;;;;;;5111191;28;20031;-79
2021/06/16 03:50:40;;;;;;;1.15;0.20;;;16.20;97.50;;;;;;5092903;28;20391;-79
2021/06/16 03:53:11;;;;;;;0.57;0.30;;;16.20;97.50;;;;;;5076066;28;20474;-79
2021/06/16 03:55:40;;;;;;;0.90;0.40;;;16.10;97.40;;;;;;5109691;28;20032;-79
2021/06/16 03:58:08;;;;;;;1.13;0.30;;;16.10;97.30;;;;;;5109647;28;20027;-80
2021/06/16 04:00:33;;;;;;;2.38;0.60;;;16.00;97.30;;;;;;5109554;28;20419;-79
2021/06/16 04:03:00;;;;;;;1.42;0.52;;;16.00;97.50;;;;;;5092236;28;20048;-79
2021/06/16 04:05:26;;;;;;;0.90;0.40;;;16.00;97.50;;;;;;5075901;28;20050;-79
2021/06/16 04:07:52;;;;;;;0.98;0.47;;;16.00;97.40;;;;;;5108475;28;20486;-79
2021/06/16 04:10:19;;;;;;;0.85;0.50;;;15.90;97.40;;;;;;5109477;28;20118;-79
2021/06/16 04:12:46;;;;;;;1.48;0.40;;;15.90;97.50;;;;;;5109491;28;20031;-80
2021/06/16 04:15:13;;;;;;;0.70;0.30;;;16.00;97.60;;;;;;5109326;28;20028;-80
2021/06/16 04:17:38;;;;;;;1.77;0.50;;;16.00;97.60;;;;;;5109367;28;20398;-80
2021/06/16 04:20:06;;;;;;;1.13;1.02;;;16.00;97.70;;;;;;5109415;28;20040;-79
2021/06/16 04:22:32;;;;;;;2.05;0.80;;;16.10;97.70;;;;;;5110000;28;20470;-79
2021/06/16 04:24:57;;;;;;;1.27;0.50;;;16.10;97.50;;;;;;5076217;28;20080;-79
2021/06/16 04:27:23;;;;;;;3.15;0.95;;;16.00;97.40;;;;;;5092350;28;20501;-78
2021/06/16 04:29:49;;;;;;;0.80;0.50;;;16.00;97.40;;;;;;5092468;28;20118;-79
2021/06/16 04:32:14;;;;;;;0.40;0.17;;;16.00;97.40;;;;;;5110982;28;20032;-80
2021/06/16 04:34:40;;;;;;;0.63;0.45;;;16.00;97.30;;;;;;5108804;28;20031;-79
2021/06/16 04:37:07;;;;;;;0.90;0.30;;;16.00;97.40;;;;;;5110460;28;20046;-79
2021/06/16 04:39:33;;;;;;;1.55;0.20;;;16.00;97.50;;;;;;5093088;28;20023;-79
2021/06/16 04:41:59;;;;;;;0.70;0.38;;;16.00;97.40;;;;;;5110135;28;20034;-80
2021/06/16 04:44:25;;;;;;;1.38;0.35;;;16.00;97.40;;;;;;5111429;28;20016;-79
2021/06/16 04:46:50;;;;;;;1.75;0.30;;;16.00;97.50;;;;;;5093964;28;20485;-79
2021/06/16 04:49:16;;;;;;;0.65;0.30;;;16.00;97.40;;;;;;5076611;28;20040;-80
2021/06/16 04:51:42;;;;;;;0.73;0.40;;;15.90;97.40;;;;;;5110298;28;20135;-80
2021/06/16 04:54:10;;;;;;;0.57;0.40;;;15.90;97.40;;;;;;5109526;28;20059;-79
2021/06/16 04:56:45;;;;;;;0.52;0.22;;;15.80;97.50;;;;;;5111150;28;20020;-79
2021/06/16 04:59:11;;;;;;;0.80;0.30;;;15.80;97.80;;;;;;5093417;28;20030;-79
2021/06/16 05:01:37;;;;;;;0.73;0.30;;;15.80;97.60;;;;;;5091895;28;20444;-81
2021/06/16 05:04:04;;;;;;;1.35;0.40;;;15.80;97.60;;;;;;5108481;28;20043;-80
2021/06/16 05:06:30;;;;;;;3.75;0.35;;;15.80;97.80;;;;;;5108982;28;20401;-80
2021/06/16 05:08:55;;;;;;;0.80;0.38;;;15.80;97.90;;;;;;5110407;28;20024;-79
2021/06/16 05:11:21;;;;;;;3.03;0.65;;;15.80;97.80;;;;;;5109119;28;20035;-79
2021/06/16 05:13:47;;;;;;;3.90;0.82;;;15.80;97.60;;;;;;5108962;28;20035;-80
2021/06/16 05:16:12;;;;;;;8.30;1.02;;;15.80;97.60;;;;;;5108486;28;20481;-78
2021/06/16 05:18:42;;;;;;;6.10;1.90;;;15.70;97.40;;;;;;5074384;28;20064;-79
2021/06/16 05:21:08;;;;;;;10.70;1.73;;;15.50;97.20;;;;;;5108798;28;20046;-79
2021/06/16 05:23:34;;;;;;;15.23;2.40;;;15.40;97.30;;;;;;5108605;28;20027;-79
2021/06/16 05:26:00;;;;;;;12.27;2.40;;;15.30;97.50;;;;;;5108641;28;20122;-79
2021/06/16 05:28:25;;;;;;;18.58;3.08;;;15.30;97.70;;;;;;5110154;28;20028;-79
2021/06/16 05:30:51;;;;;;;17.17;2.88;;;15.20;97.70;;;;;;5092696;28;20028;-80
2021/06/16 05:33:17;;;;;;;14.90;3.08;;;15.20;97.80;;;;;;5108018;28;20063;-79
2021/06/16 05:35:43;;;;;;;16.73;4.28;;;15.20;97.80;;;;;;5090933;28;20065;-79
2021/06/16 05:38:09;;;;;;;19.50;4.85;;;15.20;97.90;;;;;;5107959;28;20107;-78
2021/06/16 05:40:36;;;;;;;17.40;3.80;;;15.20;97.90;;;;;;5109000;28;20486;-78
2021/06/16 05:43:02;;;;;;;15.38;4.40;;;15.30;97.80;;;;;;5090624;28;20039;-78
2021/06/16 05:45:27;;;;;;;20.73;3.33;;;15.20;97.50;;;;;;5109252;28;20454;-79
2021/06/16 05:47:53;;;;;;;19.55;4.15;;;15.20;97.60;;;;;;5107561;28;20036;-78
2021/06/16 05:50:20;;;;;;;18.73;3.58;;;15.30;97.70;;;;;;5107229;28;20033;-77
2021/06/16 05:52:45;;;;;;;18.65;4.22;;;15.30;97.80;;;;;;5107089;28;20049;-79
2021/06/16 05:55:13;;;;;;;22.35;4.40;;;15.40;97.80;;;;;;5090123;28;20557;-78
2021/06/16 05:57:38;;;;;;;21.65;3.67;;;15.40;97.60;;;;;;5109031;28;20474;-80
2021/06/16 06:00:05;;;;;;;19.20;3.85;;;15.50;97.60;;;;;;5107069;28;20035;-80
2021/06/16 06:02:31;;;;;;;17.88;3.20;;;15.60;97.60;;;;;;5090079;28;20035;-79
2021/06/16 06:04:57;;;;;;;23.35;3.45;;;15.60;97.60;;;;;;5090211;28;20118;-79
2021/06/16 06:07:22;;;;;;;21.45;4.57;;;15.70;97.50;;;;;;5073333;28;20047;-80
2021/06/16 06:09:49;;;;;;;18.85;3.63;;;15.70;97.40;;;;;;5090344;28;20104;-80
2021/06/16 06:12:15;;;;;;;16.95;2.65;;;15.70;97.50;;;;;;5106970;28;20027;-80
2021/06/16 06:14:41;;;;;;;20.40;4.07;;;15.80;97.50;;;;;;5106813;28;20094;-80
2021/06/16 06:17:07;;;;;;;15.18;3.05;;;15.90;97.50;;;;;;5090095;28;20052;-80
2021/06/16 06:19:33;;;;;;;17.33;3.33;;;16.00;97.40;;;;;;5106793;28;20020;-80
2021/06/16 06:21:58;;;;;;;16.17;2.83;;;16.10;97.30;;;;;;5073352;28;20041;-79
2021/06/16 06:24:24;;;;;;;12.65;2.50;;;16.10;97.30;;;;;;5107155;28;20043;-79
2021/06/16 06:26:50;;;;;;;16.38;3.22;;;16.10;97.10;;;;;;5106670;28;20019;-80
2021/06/16 06:29:15;;;;;;;12.43;2.67;;;16.20;97.10;;;;;;5106973;28;20020;-80
2021/06/16 06:31:41;;;;;;;11.90;2.70;;;16.20;97.00;;;;;;5089136;28;20023;-79
2021/06/16 06:34:07;;;;;;;12.45;2.63;;;16.20;96.90;;;;;;5089674;28;20027;-80
2021/06/16 06:36:33;;;;;;;12.00;2.38;;;16.20;96.80;;;;;;5089769;28;20062;-80
2021/06/16 06:38:58;;;;;;;9.77;2.53;;;16.20;96.90;;;;;;5089688;28;20053;-81
2021/06/16 06:41:24;;;;;;;11.23;2.63;;;16.30;96.90;;;;;;5108032;28;20493;-80
2021/06/16 06:43:50;;;;;;;16.55;3.33;;;16.30;96.90;;;;;;5090228;28;20028;-80
2021/06/16 06:46:16;;;;;;;12.88;3.28;;;16.40;96.90;;;;;;5106554;28;20465;-78
2021/06/16 06:48:41;;;;;;;15.38;3.42;;;16.60;96.80;;;;;;5106408;28;20036;-69
2021/06/16 06:51:08;;;;;;;15.98;3.70;;;16.70;96.70;;;;;;5107595;28;20041;-81
2021/06/16 06:53:34;;;;;;;15.85;3.35;;;16.80;96.60;;;;;;5089171;28;20443;-81
2021/06/16 06:56:00;;;;;;;20.73;4.97;;;16.90;96.60;;;;;;5089651;28;20027;-82
2021/06/16 06:58:26;;;;;;;20.38;3.60;;;17.00;96.30;;;;;;5106372;28;20026;-79
2021/06/16 07:00:52;;;;;;;14.38;2.85;;;17.00;96.00;;;;;;5106683;28;20462;-81
2021/06/16 07:03:18;;;;;;;16.55;3.70;;;17.10;95.80;;;;;;5107411;28;20131;-80
2021/06/16 07:05:44;;;;;;;21.35;4.28;;;17.20;95.60;;;;;;5106240;28;20512;-80
2021/06/16 07:08:10;;;;;;;25.08;4.85;;;17.30;95.40;;;;;;5089515;28;20032;-80
2021/06/16 07:10:35;;;;;;;17.00;3.25;;;17.40;95.40;;;;;;5089394;28;20035;-80
2021/06/16 07:13:03;;;;;;;19.52;3.35;;;17.50;95.00;;;;;;5089273;28;20062;-80
2021/06/16 07:15:32;;;;;;;16.90;3.20;;;17.50;94.50;;;;;;5106273;28;20482;-80
2021/06/16 07:17:58;;;;;;;24.20;3.97;;;17.50;94.40;;;;;;5107783;28;20023;-79
2021/06/16 07:20:24;;;;;;;15.93;3.92;;;17.50;94.40;;;;;;5106373;28;20359;-81
2021/06/16 07:22:50;;;;;;;17.20;3.40;;;17.70;94.60;;;;;;5107618;28;20020;-79
2021/06/16 07:25:18;;;;;;;18.08;4.75;;;17.70;94.10;;;;;;5107880;28;20027;-80
2021/06/16 07:27:45;;;;;;;17.45;3.40;;;17.70;93.80;;;;;;5105996;28;20123;-80
2021/06/16 07:30:11;;;;;;;21.95;3.90;;;17.60;93.50;;;;;;5106154;28;20418;-79
2021/06/16 07:32:37;;;;;;;21.75;4.03;;;17.60;93.40;;;;;;5089413;28;20028;-80
2021/06/16 07:35:04;;;;;;;19.90;3.10;;;17.50;93.40;;;;;;5089285;28;20031;-79
2021/06/16 07:37:30;;;;;;;17.85;3.40;;;17.40;93.40;;;;;;5107336;28;20103;-81
2021/06/16 07:39:55;;;;;;;17.88;3.30;;;17.40;93.50;;;;;;5105968;28;20028;-79
2021/06/16 07:42:22;;;;;;;17.08;4.55;;;17.30;93.50;;;;;;5074317;28;20363;-81
2021/06/16 07:44:48;;;;;;;20.40;3.90;;;17.30;93.30;;;;;;5109496;28;20122;-80
2021/06/16 07:47:14;;;;;;;20.00;3.45;;;17.30;93.30;;;;;;5109764;28;20111;-78
2021/06/16 07:49:40;;;;;;;19.73;3.67;;;17.30;93.30;;;;;;5109137;28;20260;-81
2021/06/16 07:52:07;;;;;;;24.00;4.15;;;17.40;93.50;;;;;;5109294;28;20051;-80
2021/06/16 07:54:33;;;;;;;17.35;3.45;;;17.50;93.60;;;;;;5092178;28;20031;-81
2021/06/16 07:56:58;;;;;;;22.05;3.15;;;17.70;93.70;;;;;;5109290;28;20508;-80
2021/06/16 07:59:24;;;;;;;21.88;3.92;;;17.90;93.70;;;;;;5075767;28;20049;-80
2021/06/16 08:01:50;;;;;;;17.48;3.72;;;18.10;93.70;;;;;;5109496;28;20100;-80
2021/06/16 08:04:16;;;;;;;18.80;3.47;;;18.30;93.40;;;;;;5109179;28;20431;-80
2021/06/16 08:06:42;;;;;;;14.43;3.88;;;18.40;93.30;;;;;;5110895;28;20462;-79
2021/06/16 08:09:08;;;;;;;17.83;3.15;;;18.40;92.80;;;;;;5116635;27;20124;-78
2021/06/16 08:11:34;;;;;;;16.92;3.72;;;18.40;92.70;;;;;;5091293;28;20032;-79
2021/06/16 08:14:00;;;;;;;15.38;3.78;;;18.30;92.30;;;;;;5091165;28;20330;-78
2021/06/16 08:16:25;;;;;;;15.32;3.78;;;18.30;92.20;;;;;;5109739;28;20027;-78
2021/06/16 08:18:52;;;;;;;18.23;3.83;;;18.20;92.10;;;;;;5109326;28;20020;-79
2021/06/16 08:21:18;;;;;;;15.93;4.13;;;18.20;92.10;;;;;;5108975;28;20031;-78
2021/06/16 08:23:45;;;;;;;22.30;4.57;;;18.20;91.90;;;;;;5108816;28;20077;-78
2021/06/16 08:26:11;;;;;;;13.30;3.00;;;18.10;91.90;;;;;;5108203;28;20030;-78
2021/06/16 08:28:37;;;;;;;16.33;3.10;;;18.20;92.10;;;;;;5108789;28;20433;-78
2021/06/16 08:31:03;;;;;;;19.13;4.05;;;18.30;92.00;;;;;;5091304;28;20454;-77
2021/06/16 08:33:29;;;;;;;14.98;3.63;;;18.30;91.90;;;;;;5108126;28;20051;-78
2021/06/16 08:35:55;;;;;;;13.00;3.28;;;18.40;91.70;;;;;;5130999;27;20130;-77
2021/06/16 08:38:21;;;;;;;17.85;3.47;;;18.50;91.70;;;;;;5088410;28;20144;-78
2021/06/16 08:40:47;;;;;;;13.95;3.00;;;18.50;91.50;;;;;;5115815;27;20033;-78
2021/06/16 08:43:15;;;;;;;20.83;4.32;;;18.50;91.20;;;;;;5107843;28;20202;-77
2021/06/16 08:45:42;;;;;;;23.77;4.33;;;18.40;91.00;;;;;;5104781;28;20034;-79
2021/06/16 08:48:09;;;;;;;22.92;7.53;;;18.30;91.10;;;;;;5109134;28;20132;-78
2021/06/16 08:50:36;;;;;;;11.90;3.00;;;18.40;91.30;;;;;;5090940;28;20050;-78
2021/06/16 08:53:02;;;;;;;15.25;3.42;;;18.40;91.00;;;;;;5104529;28;20437;-78
2021/06/16 08:55:28;;;;;;;11.63;3.20;;;18.50;91.10;;;;;;5107453;28;20109;-78
2021/06/16 08:57:54;;;;;;;14.82;3.90;;;18.70;91.20;;;;;;5107481;28;20065;-74
2021/06/16 09:00:22;;;;;;;15.73;3.13;;;18.90;91.20;;;;;;5108832;28;20035;-77
2021/06/16 09:02:47;;;;;;;21.30;4.05;;;19.20;91.20;;;;;;5107547;28;20070;-78
2021/06/16 09:05:14;;;;;;;13.75;4.18;;;19.50;90.80;;;;;;5107563;28;20051;-78
2021/06/16 09:07:42;;;;;;;16.65;3.33;;;19.70;90.40;;;;;;5108529;28;20032;-78
2021/06/16 09:10:15;;;;;;;27.48;4.22;;;19.90;90.10;;;;;;5107177;28;20020;-78
2021/06/16 09:12:57;;;;;;;16.55;3.42;;;20.10;89.50;;;;;;5109758;28;20050;-78
2021/06/16 09:15:28;;;;;;;32.08;3.53;;;20.30;88.30;;;;;;5109347;28;20084;-77
2021/06/16 09:18:04;;;;;;;15.35;3.95;;;20.40;86.90;;;;;;5109127;28;20033;-79
2021/06/16 09:20:34;;;;;;;16.15;3.13;;;20.40;85.10;;;;;;5100826;28;20016;-78
2021/06/16 09:23:11;;;;;;;13.75;3.22;;;20.30;84.90;;;;;;5110152;27;20027;-78
2021/06/16 09:25:37;;;;;;;13.77;3.15;;;20.30;85.20;;;;;;5108467;28;20334;-79
2021/06/16 09:28:03;;;;;;;9.05;2.75;;;20.40;85.10;;;;;;5108433;28;20035;-79
2021/06/16 09:30:36;;;;;;;10.27;2.92;;;20.50;84.20;;;;;;5091472;28;20027;-78
2021/06/16 09:33:07;;;;;;;13.25;2.97;;;20.70;84.20;;;;;;5110970;27;20432;-79
2021/06/16 09:35:39;;;;;;;15.45;3.80;;;21.00;83.00;;;;;;5110224;28;20035;-79
2021/06/16 09:38:14;;;;;;;18.52;4.97;;;21.10;81.80;;;;;;5109120;28;20024;-78
2021/06/16 09:40:44;;;;;;;19.13;4.05;;;21.20;81.30;;;;;;5109023;28;20635;-79
2021/06/16 09:43:13;;;;;;;16.58;6.60;;;21.10;80.70;;;;;;5108975;28;20026;-79
2021/06/16 09:45:40;;;;;;;15.32;3.83;;;21.10;79.50;;;;;;5110109;28;20019;-78
2021/06/16 09:48:24;;;;;;;20.30;3.45;;;20.90;79.00;;;;;;5109052;28;20032;-79
2021/06/16 09:51:13;;;;;;;19.90;4.05;;;20.80;78.90;;;;;;5108993;28;20076;-79
2021/06/16 09:53:57;;;;;;;12.10;2.80;;;20.60;78.80;;;;;;5109832;28;20500;-79
2021/06/16 09:56:25;;;;;;;11.70;3.72;;;20.60;78.40;;;;;;5109826;28;20476;-79
2021/06/16 09:58:52;;;;;;;15.05;3.20;;;20.60;77.70;;;;;;5091840;28;20374;-79
2021/06/16 10:01:18;;;;;;;11.35;2.63;;;20.70;77.60;;;;;;5108421;28;20438;-79
2021/06/16 10:03:44;;;;;;;9.60;3.13;;;20.80;77.70;;;;;;5108412;28;20088;-78
2021/06/16 10:06:13;;;;;;;7.75;2.15;;;21.00;77.30;;;;;;5091344;28;20039;-78
2021/06/16 10:08:47;;;;;;;9.60;2.33;;;21.20;76.40;;;;;;5092458;28;20085;-80
2021/06/16 10:11:21;;;;;;;14.82;2.75;;;21.40;75.50;;;;;;5091853;28;20449;-80
2021/06/16 10:13:50;;;;;;;11.13;2.70;;;21.60;75.00;;;;;;5108759;28;20035;-78
2021/06/16 10:16:16;;;;;;;13.17;2.20;;;21.60;73.60;;;;;;5109339;28;20115;-80
2021/06/16 10:18:44;;;;;;;11.07;2.13;;;21.60;72.90;;;;;;5109266;28;20016;-79
2021/06/16 10:21:14;;;;;;;18.52;3.17;;;21.70;72.20;;;;;;5109665;28;20012;-78
2021/06/16 10:23:40;;;;;;;6.90;1.88;;;21.80;70.90;;;;;;5110273;28;20031;-81
2021/06/16 10:26:10;;;;;;;11.05;2.67;;;21.80;71.20;;;;;;5109053;28;20129;-79
2021/06/16 10:28:39;;;;;;;11.27;2.63;;;21.90;70.60;;;;;;5108580;28;20026;-79
2021/06/16 10:31:06;;;;;;;9.27;2.08;;;22.00;69.80;;;;;;5110140;28;20020;-78
2021/06/16 10:33:37;;;;;;;16.13;3.00;;;22.10;70.40;;;;;;5108772;28;20031;-79
2021/06/16 10:36:21;;;;;;;12.32;2.67;;;22.20;69.30;;;;;;5109721;28;20024;-79
2021/06/16 10:38:59;;;;;;;8.85;2.40;;;22.30;69.50;;;;;;5110220;28;20016;-78
2021/06/16 10:41:37;;;;;;;9.32;2.17;;;22.50;69.40;;;;;;5110508;28;20474;-80
2021/06/16 10:44:15;;;;;;;9.30;1.48;;;22.70;68.90;;;;;;5110076;28;20346;-78
2021/06/16 10:46:53;;;;;;;11.90;2.30;;;22.70;66.90;;;;;;5107623;28;20408;-80
2021/06/16 10:49:50;;;;;;;15.02;2.38;;;22.70;66.60;;;;;;5110342;28;20049;-78
2021/06/16 10:52:18;;;;;;;9.10;1.67;;;22.70;66.30;;;;;;5109849;28;20034;-80
2021/06/16 10:54:59;;;;;;;10.63;2.42;;;22.90;65.90;;;;;;5109949;28;20066;-80
2021/06/16 10:57:25;;;;;;;14.25;2.70;;;23.10;65.10;;;;;;5108922;28;20024;-80
2021/06/16 10:59:52;;;;;;;11.13;2.05;;;23.40;64.60;;;;;;5109841;28;20470;-80
2021/06/16 11:02:34;;;;;;;16.52;2.95;;;23.50;64.00;;;;;;5110093;28;20049;-78
2021/06/16 11:05:18;;;;;;;10.45;2.80;;;23.70;63.80;;;;;;5088533;28;20038;-77
2021/06/16 11:07:43;;;;;;;9.02;1.88;;;23.70;63.10;;;;;;5088446;28;20028;-80
2021/06/16 11:10:09;;;;;;;11.65;2.33;;;23.60;62.70;;;;;;5104860;28;20465;-80
2021/06/16 11:12:40;;;;;;;17.77;2.72;;;23.40;61.50;;;;;;5108232;28;20034;-81
2021/06/16 11:15:10;;;;;;;9.10;2.17;;;23.20;61.50;;;;;;5108119;28;20106;-79
2021/06/16 11:17:36;;;;;;;12.60;3.35;;;23.00;61.50;;;;;;5110479;28;20111;-80
2021/06/16 11:20:36;;;;;;;12.35;2.53;;;22.90;61.90;;;;;;5111430;28;20448;-80
2021/06/16 11:23:05;;;;;;;12.27;2.85;;;22.90;62.00;;;;;;5101284;28;20019;-80
2021/06/16 11:25:35;;;;;;;10.82;4.57;;;23.10;62.20;;;;;;5111145;28;20024;-80
2021/06/16 11:28:04;;;;;;;13.60;3.50;;;23.30;62.30;;;;;;5112730;28;20032;-76
2021/06/16 11:30:49;;;;;;;11.48;2.00;;;23.60;61.40;;;;;;5113264;28;20051;-79
2021/06/16 11:33:21;;;;;;;12.90;2.88;;;24.00;61.00;;;;;;5092678;28;20028;-80
2021/06/16 11:35:55;;;;;;;10.18;1.95;;;24.20;60.00;;;;;;5092033;28;20021;-80
2021/06/16 11:38:21;;;;;;;8.48;2.58;;;24.20;58.90;;;;;;5093747;28;20073;-80
2021/06/16 11:41:02;;;;;;;15.80;2.88;;;24.20;58.60;;;;;;5091997;28;20024;-79
2021/06/16 11:43:40;;;;;;;12.73;4.38;;;24.20;58.00;;;;;;5092394;28;20070;-81
2021/06/16 11:46:13;;;;;;;13.00;2.83;;;24.30;57.60;;;;;;5096014;28;20119;-81
2021/06/16 11:48:40;;;;;;;11.75;2.15;;;24.50;57.30;;;;;;5113613;28;20078;-78
2021/06/16 11:51:08;;;;;;;8.70;2.15;;;24.70;56.50;;;;;;5078353;28;20077;-81
2021/06/16 11:53:35;;;;;;;7.32;2.83;;;24.60;56.00;;;;;;5113351;28;20035;-80
2021/06/16 11:56:04;;;;;;;13.32;3.63;;;24.50;55.90;;;;;;5094476;28;20028;-81
2021/06/16 11:58:41;;;;;;;11.90;3.88;;;24.30;55.90;;;;;;5111630;28;20027;-79
2021/06/16 12:01:13;;;;;;;9.45;3.70;;;24.10;55.50;;;;;;5113218;28;20447;-78
2021/06/16 12:03:45;;;;;;;11.00;2.40;;;24.00;56.00;;;;;;5113061;28;20039;-77
2021/06/16 12:06:15;;;;;;;10.75;2.95;;;24.10;56.30;;;;;;5112785;28;20050;-78
2021/06/16 12:08:42;;;;;;;9.68;3.45;;;24.10;56.00;;;;;;5111633;28;20484;-79
2021/06/16 12:11:23;;;;;;;8.57;2.83;;;24.20;55.80;;;;;;5111657;28;20024;-78
2021/06/16 12:14:00;;;;;;;9.23;2.50;;;24.20;55.60;;;;;;5112251;28;20024;-77
2021/06/16 12:16:27;;;;;;;12.55;2.15;;;24.30;55.60;;;;;;5110917;28;20041;-80
2021/06/16 12:18:53;;;;;;;14.60;2.63;;;24.60;55.60;;;;;;5110417;28;20019;-78
2021/06/16 12:21:19;;;;;;;11.45;2.50;;;25.00;55.60;;;;;;5110829;28;20039;-78
2021/06/16 12:23:46;;;;;;;11.05;2.55;;;25.50;55.10;;;;;;5109445;28;20095;-71
2021/06/16 12:26:24;;;;;;;10.32;3.33;;;25.60;53.90;;;;;;5113903;27;20028;-78
2021/06/16 12:28:53;;;;;;;8.95;2.53;;;25.40;53.00;;;;;;5091247;28;20556;-78
2021/06/16 12:31:30;;;;;;;7.70;2.20;;;25.10;52.50;;;;;;5101346;28;20024;-76
2021/06/16 12:36:35;;;;;;;10.57;2.83;;;24.40;53.10;;;;;;5111630;28;20035;-77
2021/06/16 12:39:06;;;;;;;12.00;2.97;;;24.20;53.60;;;;;;5110229;28;20639;-78
2021/06/16 12:41:37;;;;;;;8.88;2.50;;;24.10;53.20;;;;;;5111449;28;20047;-79
2021/06/16 12:44:16;;;;;;;8.05;3.10;;;24.00;53.40;;;;;;5110078;28;20099;-78
2021/06/16 12:47:05;;;;;;;9.70;2.42;;;24.00;53.10;;;;;;5110726;28;20069;-78
2021/06/16 12:49:37;;;;;;;11.43;2.58;;;24.00;53.30;;;;;;5108246;28;20027;-78
2021/06/16 12:52:06;;;;;;;12.85;2.90;;;24.20;53.70;;;;;;5112229;28;20019;-79